logo
Search for airport 
image banner adimage banner adimage banner ad
image banner ad

YSWD - Sea World

Located in Main Beach, Australia

ICAO - , IATA -

Data provided by Airmate  

General information

Coordinates: S27°57'35" E153°25'26"
Elevation is 18 feet MSL.
Magnetic variation is 11° East
View others Airports in Queensland

Operational data

Special qualification required
Current time UTC:
Current local time:
Weather at : YBCG - Gold Coast ( 24 km )
METAR: YBCG 291800Z AUTO 31005KT 9999 // NCD 17/15 Q1022 RF00.0/000.0
TAF: TAF YBCG 291707Z 2918/3018 33007KT 9999 SCT015 FM292300 36010KT 9999 SCT025 FM300100 02014KT CAVOK FM300800 36008KT 9999 FEW025
View NOTAMs / SUP AIP / TFR affecting this airport [VIEW]
Communications frequencies: [VIEW]

Runways:

Airport contact information

Address: Main Beach Australia

Satellite view of YSWD